sensor_id;sensor_type;location;lat;lon;timestamp;pressure;altitude;pressure_sealevel;temperature;humidity
7834;BME280;3962;42.696;23.354;2023-12-04T00:00:05;95644.66;;;0.30;76.64
7834;BME280;3962;42.696;23.354;2023-12-04T00:02:32;95658.81;;;0.43;77.16
7834;BME280;3962;42.696;23.354;2023-12-04T00:04:59;95649.41;;;0.56;76.13
7834;BME280;3962;42.696;23.354;2023-12-04T00:07:26;95656.13;;;0.45;76.01
7834;BME280;3962;42.696;23.354;2023-12-04T00:09:53;95658.91;;;0.42;76.06
7834;BME280;3962;42.696;23.354;2023-12-04T00:12:20;95652.44;;;0.32;76.22
7834;BME280;3962;42.696;23.354;2023-12-04T00:14:48;95656.66;;;0.34;76.17
7834;BME280;3962;42.696;23.354;2023-12-04T00:17:15;95666.88;;;0.39;77.33
7834;BME280;3962;42.696;23.354;2023-12-04T00:19:42;95672.59;;;0.30;76.95
7834;BME280;3962;42.696;23.354;2023-12-04T00:22:08;95673.75;;;0.24;76.26
7834;BME280;3962;42.696;23.354;2023-12-04T00:24:35;95684.31;;;0.40;75.98
7834;BME280;3962;42.696;23.354;2023-12-04T00:27:02;95686.75;;;0.43;75.88
7834;BME280;3962;42.696;23.354;2023-12-04T00:29:29;95690.22;;;0.26;76.12
7834;BME280;3962;42.696;23.354;2023-12-04T00:31:58;95682.47;;;0.25;76.21
7834;BME280;3962;42.696;23.354;2023-12-04T00:34:24;95704.44;;;0.21;75.86
7834;BME280;3962;42.696;23.354;2023-12-04T00:36:51;95698.16;;;0.25;75.50
7834;BME280;3962;42.696;23.354;2023-12-04T00:39:18;95693.28;;;0.34;75.86
7834;BME280;3962;42.696;23.354;2023-12-04T00:41:45;95704.69;;;0.16;74.81
7834;BME280;3962;42.696;23.354;2023-12-04T00:44:12;95708.53;;;0.26;76.17
7834;BME280;3962;42.696;23.354;2023-12-04T00:46:38;95709.09;;;0.50;76.26
7834;BME280;3962;42.696;23.354;2023-12-04T00:49:06;95702.22;;;0.47;76.20
7834;BME280;3962;42.696;23.354;2023-12-04T00:51:37;95709.38;;;0.44;75.40
7834;BME280;3962;42.696;23.354;2023-12-04T00:54:05;95709.91;;;0.33;75.37
7834;BME280;3962;42.696;23.354;2023-12-04T00:56:31;95710.72;;;0.35;76.02
7834;BME280;3962;42.696;23.354;2023-12-04T00:58:58;95711.53;;;0.53;76.29
7834;BME280;3962;42.696;23.354;2023-12-04T01:01:25;95721.94;;;0.54;75.57
7834;BME280;3962;42.696;23.354;2023-12-04T01:03:52;95719.69;;;0.47;75.81
7834;BME280;3962;42.696;23.354;2023-12-04T01:06:23;95716.94;;;0.33;76.72
7834;BME280;3962;42.696;23.354;2023-12-04T01:08:51;95713.53;;;0.31;75.96
7834;BME280;3962;42.696;23.354;2023-12-04T01:11:18;95723.09;;;0.49;75.74
7834;BME280;3962;42.696;23.354;2023-12-04T01:13:45;95718.16;;;0.43;76.38
7834;BME280;3962;42.696;23.354;2023-12-04T01:16:12;95726.03;;;0.43;75.63
7834;BME280;3962;42.696;23.354;2023-12-04T01:18:40;95718.63;;;0.51;75.50
7834;BME280;3962;42.696;23.354;2023-12-04T01:21:07;95724.78;;;0.33;75.25
7834;BME280;3962;42.696;23.354;2023-12-04T01:23:35;95728.41;;;0.30;75.84
7834;BME280;3962;42.696;23.354;2023-12-04T01:26:03;95713.00;;;0.24;75.87
7834;BME280;3962;42.696;23.354;2023-12-04T01:28:30;95714.78;;;0.24;76.43
7834;BME280;3962;42.696;23.354;2023-12-04T01:30:57;95711.69;;;0.16;76.26
7834;BME280;3962;42.696;23.354;2023-12-04T01:33:23;95709.16;;;0.14;77.44
7834;BME280;3962;42.696;23.354;2023-12-04T01:35:50;95723.00;;;0.16;76.02
7834;BME280;3962;42.696;23.354;2023-12-04T01:38:17;95723.06;;;0.15;77.23
7834;BME280;3962;42.696;23.354;2023-12-04T01:40:46;95717.94;;;0.13;76.26
7834;BME280;3962;42.696;23.354;2023-12-04T01:43:12;95721.59;;;0.09;76.67
7834;BME280;3962;42.696;23.354;2023-12-04T01:45:40;95730.91;;;0.15;76.04
7834;BME280;3962;42.696;23.354;2023-12-04T01:48:07;95728.69;;;0.07;75.65
7834;BME280;3962;42.696;23.354;2023-12-04T01:50:35;95728.16;;;0.18;75.91
7834;BME280;3962;42.696;23.354;2023-12-04T01:53:03;95729.78;;;0.20;76.67
7834;BME280;3962;42.696;23.354;2023-12-04T01:55:30;95724.78;;;0.33;75.62
7834;BME280;3962;42.696;23.354;2023-12-04T01:58:02;95733.78;;;0.27;76.83
7834;BME280;3962;42.696;23.354;2023-12-04T02:00:30;95730.38;;;0.25;76.06
7834;BME280;3962;42.696;23.354;2023-12-04T02:02:58;95737.09;;;0.31;77.62
7834;BME280;3962;42.696;23.354;2023-12-04T02:05:24;95732.78;;;0.30;76.22
7834;BME280;3962;42.696;23.354;2023-12-04T02:07:53;95730.69;;;0.19;75.84
7834;BME280;3962;42.696;23.354;2023-12-04T02:10:20;95730.91;;;0.15;75.80
7834;BME280;3962;42.696;23.354;2023-12-04T02:12:47;95726.13;;;0.06;76.64
7834;BME280;3962;42.696;23.354;2023-12-04T02:15:16;95737.19;;;-0.06;77.22
7834;BME280;3962;42.696;23.354;2023-12-04T02:17:43;95737.59;;;0.03;76.22
7834;BME280;3962;42.696;23.354;2023-12-04T02:20:12;95730.31;;;0.10;77.03
7834;BME280;3962;42.696;23.354;2023-12-04T02:22:39;95747.66;;;-0.06;76.02
7834;BME280;3962;42.696;23.354;2023-12-04T02:25:08;95757.06;;;0.15;76.08
7834;BME280;3962;42.696;23.354;2023-12-04T02:27:38;95760.97;;;0.25;75.55
7834;BME280;3962;42.696;23.354;2023-12-04T02:30:08;95748.69;;;0.08;75.53
7834;BME280;3962;42.696;23.354;2023-12-04T02:32:39;95748.84;;;0.05;75.89
7834;BME280;3962;42.696;23.354;2023-12-04T02:35:09;95752.25;;;-0.11;75.95
7834;BME280;3962;42.696;23.354;2023-12-04T02:37:36;95759.69;;;-0.20;75.84
7834;BME280;3962;42.696;23.354;2023-12-04T02:40:04;95763.19;;;-0.03;75.94
7834;BME280;3962;42.696;23.354;2023-12-04T02:42:33;95766.59;;;-0.01;75.42
7834;BME280;3962;42.696;23.354;2023-12-04T02:45:00;95756.69;;;0.05;75.37
7834;BME280;3962;42.696;23.354;2023-12-04T02:47:27;95759.81;;;-0.05;74.80
7834;BME280;3962;42.696;23.354;2023-12-04T02:49:54;95758.63;;;-0.16;75.62
7834;BME280;3962;42.696;23.354;2023-12-04T02:52:20;95762.38;;;-0.22;76.05
7834;BME280;3962;42.696;23.354;2023-12-04T02:54:47;95774.75;;;-0.25;75.52
7834;BME280;3962;42.696;23.354;2023-12-04T02:57:14;95763.72;;;-0.32;75.91
7834;BME280;3962;42.696;23.354;2023-12-04T02:59:42;95766.97;;;-0.45;75.95
7834;BME280;3962;42.696;23.354;2023-12-04T03:02:09;95764.44;;;-0.47;76.81
7834;BME280;3962;42.696;23.354;2023-12-04T03:04:36;95768.97;;;-0.50;76.42
7834;BME280;3962;42.696;23.354;2023-12-04T03:07:03;95762.75;;;-0.66;76.20
7834;BME280;3962;42.696;23.354;2023-12-04T03:09:30;95768.59;;;-0.61;77.33
7834;BME280;3962;42.696;23.354;2023-12-04T03:11:57;95767.16;;;-0.68;76.74
7834;BME280;3962;42.696;23.354;2023-12-04T03:14:23;95776.78;;;-0.69;76.59
7834;BME280;3962;42.696;23.354;2023-12-04T03:16:52;95773.22;;;-0.86;76.88
7834;BME280;3962;42.696;23.354;2023-12-04T03:19:18;95782.63;;;-0.82;77.95
7834;BME280;3962;42.696;23.354;2023-12-04T03:21:45;95774.44;;;-0.75;77.48
7834;BME280;3962;42.696;23.354;2023-12-04T03:24:12;95779.47;;;-0.70;77.29
7834;BME280;3962;42.696;23.354;2023-12-04T03:26:39;95792.97;;;-0.61;78.00
7834;BME280;3962;42.696;23.354;2023-12-04T03:29:06;95783.75;;;-0.69;77.54
7834;BME280;3962;42.696;23.354;2023-12-04T03:31:33;95779.13;;;-0.63;77.68
7834;BME280;3962;42.696;23.354;2023-12-04T03:34:03;95775.59;;;-0.62;77.20
7834;BME280;3962;42.696;23.354;2023-12-04T03:36:30;95783.44;;;-0.62;77.17
7834;BME280;3962;42.696;23.354;2023-12-04T03:38:56;95773.47;;;-0.72;76.91
7834;BME280;3962;42.696;23.354;2023-12-04T03:41:23;95778.53;;;-0.69;76.61
7834;BME280;3962;42.696;23.354;2023-12-04T03:43:50;95799.50;;;-0.71;76.81
7834;BME280;3962;42.696;23.354;2023-12-04T03:46:17;95790.53;;;-0.84;76.81
7834;BME280;3962;42.696;23.354;2023-12-04T03:48:43;95795.56;;;-0.79;76.89
7834;BME280;3962;42.696;23.354;2023-12-04T03:51:12;95793.78;;;-0.79;77.41
7834;BME280;3962;42.696;23.354;2023-12-04T03:53:38;95784.66;;;-0.89;76.88
7834;BME280;3962;42.696;23.354;2023-12-04T03:56:06;95794.69;;;-0.80;76.08
7834;BME280;3962;42.696;23.354;2023-12-04T03:58:33;95793.66;;;-0.96;76.04
7834;BME280;3962;42.696;23.354;2023-12-04T04:01:00;95790.78;;;-0.90;76.39
7834;BME280;3962;42.696;23.354;2023-12-04T04:03:27;95791.88;;;-0.94;75.78
7834;BME280;3962;42.696;23.354;2023-12-04T04:05:53;95798.00;;;-0.76;76.04
7834;BME280;3962;42.696;23.354;2023-12-04T04:08:21;95796.25;;;-0.76;76.37
7834;BME280;3962;42.696;23.354;2023-12-04T04:10:48;95790.28;;;-0.78;75.25
7834;BME280;3962;42.696;23.354;2023-12-04T04:13:15;95782.28;;;-0.75;75.95
7834;BME280;3962;42.696;23.354;2023-12-04T04:15:42;95789.34;;;-0.77;75.51
7834;BME280;3962;42.696;23.354;2023-12-04T04:18:09;95789.59;;;-0.63;75.63
7834;BME280;3962;42.696;23.354;2023-12-04T04:20:36;95801.50;;;-0.76;75.56
7834;BME280;3962;42.696;23.354;2023-12-04T04:23:02;95811.78;;;-0.73;75.24
7834;BME280;3962;42.696;23.354;2023-12-04T04:25:30;95808.25;;;-0.72;74.98
7834;BME280;3962;42.696;23.354;2023-12-04T04:27:57;95802.06;;;-0.69;75.86
7834;BME280;3962;42.696;23.354;2023-12-04T04:30:24;95813.56;;;-0.73;75.21
7834;BME280;3962;42.696;23.354;2023-12-04T04:32:51;95815.56;;;-0.60;74.67
7834;BME280;3962;42.696;23.354;2023-12-04T04:35:18;95816.34;;;-0.58;74.27
7834;BME280;3962;42.696;23.354;2023-12-04T04:37:44;95822.53;;;-0.60;73.99
7834;BME280;3962;42.696;23.354;2023-12-04T04:40:11;95827.56;;;-0.56;75.15
7834;BME280;3962;42.696;23.354;2023-12-04T04:42:40;95817.09;;;-0.74;74.41
7834;BME280;3962;42.696;23.354;2023-12-04T04:45:07;95828.38;;;-0.74;74.78
7834;BME280;3962;42.696;23.354;2023-12-04T04:47:34;95833.56;;;-0.92;75.59
7834;BME280;3962;42.696;23.354;2023-12-04T04:50:01;95827.56;;;-0.74;75.95
7834;BME280;3962;42.696;23.354;2023-12-04T04:52:28;95834.03;;;-0.83;74.82
7834;BME280;3962;42.696;23.354;2023-12-04T04:54:55;95832.06;;;-0.78;74.98
7834;BME280;3962;42.696;23.354;2023-12-04T04:57:22;95850.97;;;-0.73;73.89
7834;BME280;3962;42.696;23.354;2023-12-04T04:59:50;95841.47;;;-0.94;74.56
7834;BME280;3962;42.696;23.354;2023-12-04T05:02:17;95838.38;;;-0.83;75.49
7834;BME280;3962;42.696;23.354;2023-12-04T05:04:43;95840.88;;;-0.80;74.67
7834;BME280;3962;42.696;23.354;2023-12-04T05:07:10;95838.78;;;-0.72;74.96
7834;BME280;3962;42.696;23.354;2023-12-04T05:09:37;95836.94;;;-0.70;75.20
7834;BME280;3962;42.696;23.354;2023-12-04T05:12:05;95838.78;;;-0.72;74.40
7834;BME280;3962;42.696;23.354;2023-12-04T05:14:31;95841.84;;;-0.63;74.11
7834;BME280;3962;42.696;23.354;2023-12-04T05:17:00;95849.47;;;-0.58;73.58
7834;BME280;3962;42.696;23.354;2023-12-04T05:19:27;95856.75;;;-0.46;73.65
7834;BME280;3962;42.696;23.354;2023-12-04T05:21:54;95862.13;;;-0.49;73.67
7834;BME280;3962;42.696;23.354;2023-12-04T05:24:21;95867.06;;;-0.62;72.74
7834;BME280;3962;42.696;23.354;2023-12-04T05:26:48;95859.72;;;-0.54;73.74
7834;BME280;3962;42.696;23.354;2023-12-04T05:29:15;95856.81;;;-0.48;73.55
7834;BME280;3962;42.696;23.354;2023-12-04T05:31:41;95865.56;;;-0.49;72.69
7834;BME280;3962;42.696;23.354;2023-12-04T05:34:10;95853.88;;;-0.40;72.57
7834;BME280;3962;42.696;23.354;2023-12-04T05:36:37;95864.59;;;-0.46;72.66
7834;BME280;3962;42.696;23.354;2023-12-04T05:39:03;95861.97;;;-0.46;72.83
7834;BME280;3962;42.696;23.354;2023-12-04T05:41:31;95865.56;;;-0.49;73.51
7834;BME280;3962;42.696;23.354;2023-12-04T05:43:58;95859.84;;;-0.57;71.82
7834;BME280;3962;42.696;23.354;2023-12-04T05:46:24;95874.50;;;-0.53;73.00
7834;BME280;3962;42.696;23.354;2023-12-04T05:48:51;95867.44;;;-0.71;73.53
7834;BME280;3962;42.696;23.354;2023-12-04T05:51:20;95871.09;;;-0.75;73.69
7834;BME280;3962;42.696;23.354;2023-12-04T05:53:48;95870.03;;;-0.71;73.09
7834;BME280;3962;42.696;23.354;2023-12-04T05:56:14;95864.75;;;-0.69;73.90
7834;BME280;3962;42.696;23.354;2023-12-04T05:58:41;95870.66;;;-0.64;73.54
7834;BME280;3962;42.696;23.354;2023-12-04T06:01:08;95875.41;;;-0.54;73.50
7834;BME280;3962;42.696;23.354;2023-12-04T06:03:35;95877.50;;;-0.62;73.27
7834;BME280;3962;42.696;23.354;2023-12-04T06:06:02;95874.59;;;-0.56;73.06
7834;BME280;3962;42.696;23.354;2023-12-04T06:08:30;95871.47;;;-0.44;73.23
7834;BME280;3962;42.696;23.354;2023-12-04T06:10:57;95884.84;;;-0.51;73.22
7834;BME280;3962;42.696;23.354;2023-12-04T06:13:24;95883.75;;;-0.46;72.58
7834;BME280;3962;42.696;23.354;2023-12-04T06:15:51;95882.44;;;-0.36;72.44
7834;BME280;3962;42.696;23.354;2023-12-04T06:18:18;95875.19;;;-0.49;72.82
7834;BME280;3962;42.696;23.354;2023-12-04T06:20:46;95876.69;;;-0.44;72.79
7834;BME280;3962;42.696;23.354;2023-12-04T06:23:13;95880.84;;;-0.40;72.96
7834;BME280;3962;42.696;23.354;2023-12-04T06:25:42;95883.81;;;-0.47;72.45
7834;BME280;3962;42.696;23.354;2023-12-04T06:28:09;95880.59;;;-0.34;72.83
7834;BME280;3962;42.696;23.354;2023-12-04T06:30:37;95886.06;;;-0.20;73.03
7834;BME280;3962;42.696;23.354;2023-12-04T06:33:04;95886.41;;;-0.27;72.42
7834;BME280;3962;42.696;23.354;2023-12-04T06:35:32;95891.25;;;-0.38;72.18
7834;BME280;3962;42.696;23.354;2023-12-04T06:38:03;95885.56;;;-0.48;72.30
7834;BME280;3962;42.696;23.354;2023-12-04T06:40:32;95898.72;;;-0.49;72.71
7834;BME280;3962;42.696;23.354;2023-12-04T06:43:01;95906.88;;;-0.37;72.05
7834;BME280;3962;42.696;23.354;2023-12-04T06:45:29;95913.03;;;-0.38;72.16
7834;BME280;3962;42.696;23.354;2023-12-04T06:47:59;95914.41;;;-0.49;72.20
7834;BME280;3962;42.696;23.354;2023-12-04T06:50:26;95917.72;;;-0.66;72.63
7834;BME280;3962;42.696;23.354;2023-12-04T06:52:52;95918.66;;;-0.47;72.16
7834;BME280;3962;42.696;23.354;2023-12-04T06:55:19;95920.59;;;-0.52;72.17
7834;BME280;3962;42.696;23.354;2023-12-04T06:57:46;95919.53;;;-0.66;72.27
7834;BME280;3962;42.696;23.354;2023-12-04T07:00:15;95918.25;;;-0.38;72.95
7834;BME280;3962;42.696;23.354;2023-12-04T07:02:42;95930.94;;;-0.10;71.69
7834;BME280;3962;42.696;23.354;2023-12-04T07:05:09;95921.78;;;-0.20;71.80
7834;BME280;3962;42.696;23.354;2023-12-04T07:07:36;95925.88;;;-0.33;70.96
7834;BME280;3962;42.696;23.354;2023-12-04T07:10:03;95926.31;;;-0.24;70.76
7834;BME280;3962;42.696;23.354;2023-12-04T07:12:30;95922.16;;;-0.28;71.04
7834;BME280;3962;42.696;23.354;2023-12-04T07:14:57;95926.81;;;-0.34;71.54
7834;BME280;3962;42.696;23.354;2023-12-04T07:17:25;95923.13;;;-0.30;71.33
7834;BME280;3962;42.696;23.354;2023-12-04T07:19:52;95922.03;;;-0.07;71.51
7834;BME280;3962;42.696;23.354;2023-12-04T07:22:19;95924.09;;;0.05;70.39
7834;BME280;3962;42.696;23.354;2023-12-04T07:24:46;95927.91;;;-0.02;69.70
7834;BME280;3962;42.696;23.354;2023-12-04T07:27:13;95927.69;;;-0.15;70.07
7834;BME280;3962;42.696;23.354;2023-12-04T07:29:40;95938.31;;;0.18;70.27
7834;BME280;3962;42.696;23.354;2023-12-04T07:32:07;95932.38;;;0.33;69.13
7834;BME280;3962;42.696;23.354;2023-12-04T07:34:36;95941.56;;;0.05;69.89
7834;BME280;3962;42.696;23.354;2023-12-04T07:37:04;95939.22;;;-0.01;70.53
7834;BME280;3962;42.696;23.354;2023-12-04T07:39:31;95937.84;;;-0.28;70.92
7834;BME280;3962;42.696;23.354;2023-12-04T07:41:58;95943.06;;;-0.28;71.70
7834;BME280;3962;42.696;23.354;2023-12-04T07:44:25;95942.72;;;-0.20;70.89
7834;BME280;3962;42.696;23.354;2023-12-04T07:46:51;95945.16;;;0.02;70.96
7834;BME280;3962;42.696;23.354;2023-12-04T07:49:18;95945.53;;;0.13;69.75
7834;BME280;3962;42.696;23.354;2023-12-04T07:51:47;95944.34;;;0.20;69.74
7834;BME280;3962;42.696;23.354;2023-12-04T07:54:13;95943.69;;;0.34;68.70
7834;BME280;3962;42.696;23.354;2023-12-04T07:56:40;95937.31;;;0.58;69.23
7834;BME280;3962;42.696;23.354;2023-12-04T07:59:08;95942.66;;;0.73;68.20
7834;BME280;3962;42.696;23.354;2023-12-04T08:01:35;95933.25;;;0.88;68.02
7834;BME280;3962;42.696;23.354;2023-12-04T08:04:02;95953.63;;;0.63;67.23
7834;BME280;3962;42.696;23.354;2023-12-04T08:06:29;95951.47;;;0.89;67.11
7834;BME280;3962;42.696;23.354;2023-12-04T08:08:58;95951.44;;;1.93;65.62
7834;BME280;3962;42.696;23.354;2023-12-04T08:11:24;95953.59;;;1.85;62.85
7834;BME280;3962;42.696;23.354;2023-12-04T08:13:51;95953.66;;;1.51;64.11
7834;BME280;3962;42.696;23.354;2023-12-04T08:16:18;95960.88;;;1.63;63.07
7834;BME280;3962;42.696;23.354;2023-12-04T08:18:45;95964.34;;;1.80;63.43
7834;BME280;3962;42.696;23.354;2023-12-04T08:21:14;95955.97;;;2.06;62.21
7834;BME280;3962;42.696;23.354;2023-12-04T08:23:41;95944.63;;;1.89;61.13
7834;BME280;3962;42.696;23.354;2023-12-04T08:26:09;95946.25;;;2.56;61.10
7834;BME280;3962;42.696;23.354;2023-12-04T08:28:36;95951.28;;;3.21;59.06
7834;BME280;3962;42.696;23.354;2023-12-04T08:31:07;95941.81;;;2.88;59.17
7834;BME280;3962;42.696;23.354;2023-12-04T08:33:34;95952.31;;;2.41;60.47
7834;BME280;3962;42.696;23.354;2023-12-04T08:36:01;95949.34;;;2.32;59.83
7834;BME280;3962;42.696;23.354;2023-12-04T08:38:28;95949.31;;;1.99;61.95
7834;BME280;3962;42.696;23.354;2023-12-04T08:40:55;95950.75;;;2.22;62.28
7834;BME280;3962;42.696;23.354;2023-12-04T08:43:24;95947.25;;;2.06;62.47
7834;BME280;3962;42.696;23.354;2023-12-04T08:45:51;95946.81;;;1.98;61.73
7834;BME280;3962;42.696;23.354;2023-12-04T08:48:18;95937.53;;;2.23;60.89
7834;BME280;3962;42.696;23.354;2023-12-04T08:50:45;95941.69;;;2.27;60.51
7834;BME280;3962;42.696;23.354;2023-12-04T08:53:12;95940.06;;;1.92;60.96
7834;BME280;3962;42.696;23.354;2023-12-04T08:55:39;95944.34;;;2.43;59.81
7834;BME280;3962;42.696;23.354;2023-12-04T08:58:06;95933.53;;;2.16;60.57
7834;BME280;3962;42.696;23.354;2023-12-04T09:00:34;95943.28;;;2.14;61.34
7834;BME280;3962;42.696;23.354;2023-12-04T09:03:03;95939.75;;;3.53;57.42
7834;BME280;3962;42.696;23.354;2023-12-04T09:05:31;95935.31;;;3.24;56.81
7834;BME280;3962;42.696;23.354;2023-12-04T09:08:01;95932.72;;;2.93;57.84
7834;BME280;3962;42.696;23.354;2023-12-04T09:10:28;95935.34;;;4.11;56.32
7834;BME280;3962;42.696;23.354;2023-12-04T09:12:55;95933.94;;;4.19;55.16
7834;BME280;3962;42.696;23.354;2023-12-04T09:15:22;95930.09;;;4.79;53.67
7834;BME280;3962;42.696;23.354;2023-12-04T09:17:50;95922.84;;;5.62;52.33
7834;BME280;3962;42.696;23.354;2023-12-04T09:20:17;95928.41;;;5.45;52.21
7834;BME280;3962;42.696;23.354;2023-12-04T09:22:44;95925.75;;;5.45;51.36
7834;BME280;3962;42.696;23.354;2023-12-04T09:25:10;95918.25;;;5.13;51.40
7834;BME280;3962;42.696;23.354;2023-12-04T09:27:37;95912.34;;;4.95;50.97
7834;BME280;3962;42.696;23.354;2023-12-04T09:30:06;95920.44;;;4.66;53.33
7834;BME280;3962;42.696;23.354;2023-12-04T09:32:33;95917.06;;;4.64;53.44
7834;BME280;3962;42.696;23.354;2023-12-04T09:35:02;95917.56;;;4.42;53.90
7834;BME280;3962;42.696;23.354;2023-12-04T09:37:29;95919.91;;;4.19;54.19
7834;BME280;3962;42.696;23.354;2023-12-04T09:39:56;95922.16;;;4.11;55.13
7834;BME280;3962;42.696;23.354;2023-12-04T09:42:23;95925.56;;;3.26;56.85
7834;BME280;3962;42.696;23.354;2023-12-04T09:44:53;95920.81;;;3.33;57.03
7834;BME280;3962;42.696;23.354;2023-12-04T09:47:21;95916.34;;;3.19;56.22
7834;BME280;3962;42.696;23.354;2023-12-04T09:49:51;95908.41;;;3.05;57.84
7834;BME280;3962;42.696;23.354;2023-12-04T09:52:20;95902.06;;;2.94;58.10
7834;BME280;3962;42.696;23.354;2023-12-04T09:54:50;95891.22;;;3.14;57.30
7834;BME280;3962;42.696;23.354;2023-12-04T09:57:17;95905.75;;;3.64;56.28
7834;BME280;3962;42.696;23.354;2023-12-04T09:59:45;95902.31;;;3.91;55.18
7834;BME280;3962;42.696;23.354;2023-12-04T10:02:12;95900.63;;;3.90;55.50
7834;BME280;3962;42.696;23.354;2023-12-04T10:04:40;95904.91;;;3.77;55.19
7834;BME280;3962;42.696;23.354;2023-12-04T10:07:08;95892.97;;;3.58;55.71
7834;BME280;3962;42.696;23.354;2023-12-04T10:09:36;95891.56;;;3.66;55.80
7834;BME280;3962;42.696;23.354;2023-12-04T10:12:03;95895.28;;;3.92;56.10
7834;BME280;3962;42.696;23.354;2023-12-04T10:14:32;95882.22;;;4.18;56.13
7834;BME280;3962;42.696;23.354;2023-12-04T10:16:59;95890.28;;;4.15;56.02
7834;BME280;3962;42.696;23.354;2023-12-04T10:19:39;95904.38;;;4.14;56.48
7834;BME280;3962;42.696;23.354;2023-12-04T10:22:08;95887.78;;;4.54;55.40
7834;BME280;3962;42.696;23.354;2023-12-04T10:24:38;95882.50;;;4.14;55.02
7834;BME280;3962;42.696;23.354;2023-12-04T10:27:06;95881.25;;;4.19;55.38
7834;BME280;3962;42.696;23.354;2023-12-04T10:29:42;95880.22;;;3.80;57.00
7834;BME280;3962;42.696;23.354;2023-12-04T10:32:09;95887.09;;;3.96;57.51
7834;BME280;3962;42.696;23.354;2023-12-04T10:34:36;95866.78;;;4.26;57.28
7834;BME280;3962;42.696;23.354;2023-12-04T10:37:04;95857.00;;;4.00;57.36
7834;BME280;3962;42.696;23.354;2023-12-04T10:39:32;95866.78;;;3.98;57.58
7834;BME280;3962;42.696;23.354;2023-12-04T10:42:23;95874.22;;;3.92;57.67
7834;BME280;3962;42.696;23.354;2023-12-04T10:44:50;95861.69;;;3.81;57.32
7834;BME280;3962;42.696;23.354;2023-12-04T10:47:19;95869.69;;;3.94;56.74
7834;BME280;3962;42.696;23.354;2023-12-04T10:49:49;95864.22;;;3.97;57.11
7834;BME280;3962;42.696;23.354;2023-12-04T10:52:16;95857.47;;;4.07;57.65
7834;BME280;3962;42.696;23.354;2023-12-04T10:54:44;95858.38;;;4.20;56.79
7834;BME280;3962;42.696;23.354;2023-12-04T10:57:16;95864.41;;;4.36;58.12
7834;BME280;3962;42.696;23.354;2023-12-04T10:59:48;95861.75;;;4.36;57.59
7834;BME280;3962;42.696;23.354;2023-12-04T11:02:21;95874.41;;;4.17;58.50
7834;BME280;3962;42.696;23.354;2023-12-04T11:04:49;95861.44;;;4.14;58.23
7834;BME280;3962;42.696;23.354;2023-12-04T11:07:18;95858.22;;;4.09;58.96
7834;BME280;3962;42.696;23.354;2023-12-04T11:09:47;95862.84;;;4.05;59.14
7834;BME280;3962;42.696;23.354;2023-12-04T11:12:18;95846.00;;;3.80;59.98
7834;BME280;3962;42.696;23.354;2023-12-04T11:14:54;95846.16;;;3.63;61.47
7834;BME280;3962;42.696;23.354;2023-12-04T11:17:23;95848.41;;;3.55;62.44
7834;BME280;3962;42.696;23.354;2023-12-04T11:19:55;95845.63;;;3.72;62.02
7834;BME280;3962;42.696;23.354;2023-12-04T11:22:25;95847.22;;;3.74;61.52
7834;BME280;3962;42.696;23.354;2023-12-04T11:24:52;95839.03;;;3.65;60.82
7834;BME280;3962;42.696;23.354;2023-12-04T11:27:21;95826.91;;;3.76;61.01
7834;BME280;3962;42.696;23.354;2023-12-04T11:29:49;95838.75;;;3.69;60.85
7834;BME280;3962;42.696;23.354;2023-12-04T11:32:18;95835.09;;;3.72;61.58
7834;BME280;3962;42.696;23.354;2023-12-04T11:34:49;95819.03;;;3.90;61.12
7834;BME280;3962;42.696;23.354;2023-12-04T11:37:19;95821.84;;;4.01;61.53
7834;BME280;3962;42.696;23.354;2023-12-04T11:39:46;95821.28;;;3.96;59.93
7834;BME280;3962;42.696;23.354;2023-12-04T11:42:18;95814.69;;;3.89;60.48
7834;BME280;3962;42.696;23.354;2023-12-04T11:44:55;95810.38;;;3.88;61.55
7834;BME280;3962;42.696;23.354;2023-12-04T11:47:23;95804.53;;;3.97;61.92
7834;BME280;3962;42.696;23.354;2023-12-04T11:49:50;95804.25;;;4.02;62.15
7834;BME280;3962;42.696;23.354;2023-12-04T11:52:32;95800.22;;;4.10;61.25
7834;BME280;3962;42.696;23.354;2023-12-04T11:55:00;95790.41;;;4.12;61.41
7834;BME280;3962;42.696;23.354;2023-12-04T11:57:32;95798.31;;;4.26;61.58
7834;BME280;3962;42.696;23.354;2023-12-04T12:00:19;95799.47;;;4.35;61.20
7834;BME280;3962;42.696;23.354;2023-12-04T12:02:51;95793.69;;;4.30;61.13
7834;BME280;3962;42.696;23.354;2023-12-04T12:05:28;95787.34;;;4.32;60.97
7834;BME280;3962;42.696;23.354;2023-12-04T12:07:55;95786.59;;;4.30;61.22
7834;BME280;3962;42.696;23.354;2023-12-04T12:10:22;95788.94;;;4.35;61.29
7834;BME280;3962;42.696;23.354;2023-12-04T12:12:50;95785.72;;;4.44;61.27
7834;BME280;3962;42.696;23.354;2023-12-04T12:15:18;95783.66;;;4.49;61.17
7834;BME280;3962;42.696;23.354;2023-12-04T12:17:46;95773.97;;;4.49;61.38
7834;BME280;3962;42.696;23.354;2023-12-04T12:20:14;95767.84;;;4.49;61.12
7834;BME280;3962;42.696;23.354;2023-12-04T12:22:41;95767.09;;;4.47;61.28
7834;BME280;3962;42.696;23.354;2023-12-04T12:25:10;95771.63;;;4.45;61.18
7834;BME280;3962;42.696;23.354;2023-12-04T12:27:40;95766.88;;;4.50;61.00
7834;BME280;3962;42.696;23.354;2023-12-04T12:30:08;95759.94;;;4.49;60.88
7834;BME280;3962;42.696;23.354;2023-12-04T12:32:37;95758.34;;;4.46;61.25
7834;BME280;3962;42.696;23.354;2023-12-04T12:35:04;95761.31;;;4.54;61.85
7834;BME280;3962;42.696;23.354;2023-12-04T12:37:33;95761.88;;;4.59;61.23
7834;BME280;3962;42.696;23.354;2023-12-04T12:40:00;95762.91;;;4.57;61.59
7834;BME280;3962;42.696;23.354;2023-12-04T12:42:30;95754.34;;;4.53;60.86
7834;BME280;3962;42.696;23.354;2023-12-04T12:45:00;95759.44;;;4.56;61.16
7834;BME280;3962;42.696;23.354;2023-12-04T12:47:29;95755.69;;;4.73;60.73
7834;BME280;3962;42.696;23.354;2023-12-04T12:50:00;95742.84;;;4.81;59.75
7834;BME280;3962;42.696;23.354;2023-12-04T12:52:29;95749.34;;;5.02;59.40
7834;BME280;3962;42.696;23.354;2023-12-04T12:54:56;95753.69;;;5.15;59.78
7834;BME280;3962;42.696;23.354;2023-12-04T12:57:23;95742.78;;;5.07;59.74
7834;BME280;3962;42.696;23.354;2023-12-04T12:59:51;95742.69;;;5.09;59.07
7834;BME280;3962;42.696;23.354;2023-12-04T13:02:19;95737.75;;;5.17;59.07
7834;BME280;3962;42.696;23.354;2023-12-04T13:04:47;95741.44;;;5.14;59.05
7834;BME280;3962;42.696;23.354;2023-12-04T13:07:15;95734.13;;;4.93;59.56
7834;BME280;3962;42.696;23.354;2023-12-04T13:09:44;95728.56;;;4.97;59.97
7834;BME280;3962;42.696;23.354;2023-12-04T13:12:11;95739.09;;;4.97;60.09
7834;BME280;3962;42.696;23.354;2023-12-04T13:14:39;95740.44;;;4.90;60.10
7834;BME280;3962;42.696;23.354;2023-12-04T13:17:06;95733.69;;;4.86;60.89
7834;BME280;3962;42.696;23.354;2023-12-04T13:19:34;95743.47;;;4.72;61.84